createdAt,value
2022-08-17T00:00:44.136Z,22.27
2022-08-17T00:03:09.008Z,22.20
2022-08-17T00:05:41.379Z,22.17
2022-08-17T00:08:07.895Z,22.18
2022-08-17T00:10:34.305Z,22.20
2022-08-17T00:13:04.396Z,22.23
2022-08-17T00:15:30.591Z,22.25
2022-08-17T00:17:56.941Z,22.27
2022-08-17T00:20:30.619Z,22.31
2022-08-17T00:23:19.404Z,22.37
2022-08-17T00:25:46.168Z,22.45
2022-08-17T00:28:15.408Z,22.51
2022-08-17T00:30:51.284Z,22.56
2022-08-17T00:33:25.563Z,22.60
2022-08-17T00:35:52.556Z,22.64
2022-08-17T00:38:19.003Z,22.67
2022-08-17T00:40:46.948Z,22.69
2022-08-17T00:43:17.096Z,22.70
2022-08-17T00:45:43.780Z,22.73
2022-08-17T00:48:11.557Z,22.72
2022-08-17T00:51:07.057Z,22.66
2022-08-17T00:53:34.453Z,22.61
2022-08-17T00:56:01.419Z,22.59
2022-08-17T00:58:30.452Z,22.59
2022-08-17T01:01:04.141Z,22.58
2022-08-17T01:03:30.524Z,22.57
2022-08-17T01:05:59.219Z,22.54
2022-08-17T01:08:26.987Z,22.49
2022-08-17T01:11:00.186Z,22.46
2022-08-17T01:13:31.283Z,22.44
2022-08-17T01:15:59.444Z,22.42
2022-08-17T01:18:25.833Z,22.42
2022-08-17T01:20:53.268Z,22.42
2022-08-17T01:23:21.131Z,22.42
2022-08-17T01:25:51.338Z,22.41
2022-08-17T01:28:53.095Z,22.37
2022-08-17T01:31:04.921Z,22.28
2022-08-17T01:33:31.458Z,22.21
2022-08-17T01:35:57.632Z,22.17
2022-08-17T01:38:27.329Z,22.15
2022-08-17T01:40:57.358Z,22.14
2022-08-17T01:43:25.368Z,22.13
2022-08-17T01:46:02.789Z,22.13
2022-08-17T01:48:31.691Z,22.12
2022-08-17T01:50:58.751Z,22.09
2022-08-17T01:53:32.608Z,22.08
2022-08-17T01:55:59.972Z,22.07
2022-08-17T01:58:26.285Z,22.08
2022-08-17T02:01:00.841Z,22.08
2022-08-17T02:03:27.988Z,22.05
2022-08-17T02:05:54.513Z,22.02
2022-08-17T02:08:21.011Z,21.98
2022-08-17T02:11:11.159Z,21.95
2022-08-17T02:13:38.184Z,21.91
2022-08-17T02:16:04.520Z,21.90
2022-08-17T02:18:30.697Z,21.87
2022-08-17T02:20:56.945Z,21.85
2022-08-17T02:23:23.759Z,21.84
2022-08-17T02:25:51.073Z,21.84
2022-08-17T02:28:17.805Z,21.81
2022-08-17T02:31:00.765Z,21.77
2022-08-17T02:33:41.941Z,21.75
2022-08-17T02:36:10.201Z,21.73
2022-08-17T02:38:36.643Z,21.72
2022-08-17T02:41:03.005Z,21.70
2022-08-17T02:43:29.238Z,21.69
2022-08-17T02:45:55.527Z,21.68
2022-08-17T02:48:31.149Z,21.66
2022-08-17T02:50:58.743Z,21.64
2022-08-17T02:53:25.698Z,21.63
2022-08-17T02:55:52.307Z,21.63
2022-08-17T02:58:18.882Z,21.63
2022-08-17T03:01:03.070Z,21.64
2022-08-17T03:03:29.359Z,21.64
2022-08-17T03:05:55.760Z,21.64
2022-08-17T03:08:22.617Z,21.62
2022-08-17T03:10:49.775Z,21.59
2022-08-17T03:13:16.199Z,21.55
2022-08-17T03:15:44.534Z,21.52
2022-08-17T03:18:24.497Z,21.50
2022-08-17T03:20:56.289Z,21.49
2022-08-17T03:23:23.946Z,21.48
2022-08-17T03:25:53.389Z,21.46
2022-08-17T03:28:20.124Z,21.44
2022-08-17T03:30:46.456Z,21.41
2022-08-17T03:33:12.906Z,21.40
2022-08-17T03:35:39.757Z,21.37
2022-08-17T03:38:06.311Z,21.37
2022-08-17T03:40:55.354Z,21.39
2022-08-17T03:43:19.413Z,21.40
2022-08-17T03:46:04.264Z,21.40
2022-08-17T03:48:51.646Z,21.40
2022-08-17T03:51:40.317Z,21.43
2022-08-17T03:54:25.623Z,21.47
2022-08-17T03:56:59.013Z,21.43
2022-08-17T03:59:25.282Z,21.43
2022-08-17T04:01:53.146Z,21.44
2022-08-17T04:04:20.176Z,21.47
2022-08-17T04:06:54.020Z,21.50
2022-08-17T04:09:20.292Z,21.56
2022-08-17T04:11:46.502Z,21.63
2022-08-17T04:14:12.768Z,21.67
2022-08-17T04:16:38.965Z,21.72
2022-08-17T04:19:05.179Z,21.77
2022-08-17T04:21:31.373Z,21.85
2022-08-17T04:23:58.615Z,21.97
2022-08-17T04:26:53.598Z,22.10
2022-08-17T04:29:11.120Z,22.23
2022-08-17T04:31:39.018Z,22.32
2022-08-17T04:34:05.331Z,22.39
2022-08-17T04:36:31.581Z,22.44
2022-08-17T04:38:58.350Z,22.46
2022-08-17T04:41:43.385Z,22.48
2022-08-17T04:44:11.004Z,22.53
2022-08-17T04:46:37.628Z,22.60
2022-08-17T04:49:05.442Z,22.70
2022-08-17T04:51:35.942Z,22.78
2022-08-17T04:54:03.977Z,22.89
2022-08-17T04:56:30.320Z,23.00
2022-08-17T04:58:57.994Z,23.11
2022-08-17T05:01:24.881Z,23.25
2022-08-17T05:03:52.076Z,23.43
2022-08-17T05:06:18.369Z,23.61
2022-08-17T05:08:44.551Z,23.75
2022-08-17T05:11:11.699Z,23.90
2022-08-17T05:13:37.975Z,24.08
2022-08-17T05:16:04.527Z,24.25
2022-08-17T05:18:30.736Z,24.42
2022-08-17T05:20:57.331Z,24.55
2022-08-17T05:23:24.599Z,24.70
2022-08-17T05:25:51.889Z,24.83
2022-08-17T05:28:20.018Z,24.98
2022-08-17T05:30:50.946Z,25.13
2022-08-17T05:33:18.930Z,25.25
2022-08-17T05:35:46.537Z,25.35
2022-08-17T05:38:13.379Z,25.44
2022-08-17T05:40:39.760Z,25.54
2022-08-17T05:43:10.260Z,25.60
2022-08-17T05:45:54.592Z,25.69
2022-08-17T05:48:21.492Z,25.79
2022-08-17T05:51:14.908Z,25.87
2022-08-17T05:54:09.234Z,25.94
2022-08-17T05:56:47.616Z,25.93
2022-08-17T05:59:35.264Z,26.02
2022-08-17T06:02:04.567Z,26.03
2022-08-17T06:04:49.495Z,26.06
2022-08-17T06:07:24.684Z,26.08
2022-08-17T06:09:50.955Z,26.18
2022-08-17T06:12:26.271Z,26.36
2022-08-17T06:15:06.712Z,26.51
2022-08-17T06:17:32.858Z,26.56
2022-08-17T06:20:00.348Z,26.71
2022-08-17T06:22:27.795Z,26.94
2022-08-17T06:24:56.237Z,27.13
2022-08-17T06:27:25.821Z,27.32
2022-08-17T06:29:53.281Z,27.51
2022-08-17T06:32:19.626Z,27.74
2022-08-17T06:34:45.932Z,27.84
2022-08-17T06:37:12.206Z,27.91
2022-08-17T06:39:38.518Z,28.03
2022-08-17T06:42:54.881Z,28.17
2022-08-17T06:45:07.210Z,28.30
2022-08-17T06:47:33.335Z,28.31
2022-08-17T06:50:04.904Z,28.34
2022-08-17T06:52:45.916Z,28.40
2022-08-17T06:55:17.810Z,28.52
2022-08-17T06:57:46.423Z,28.70
2022-08-17T07:00:14.328Z,28.91
2022-08-17T07:02:54.952Z,29.14
2022-08-17T07:05:22.208Z,29.29
2022-08-17T07:08:02.977Z,29.07
2022-08-17T07:10:37.461Z,28.74
2022-08-17T07:13:28.723Z,28.51
2022-08-17T07:15:57.996Z,28.37
2022-08-17T07:18:24.857Z,28.67
2022-08-17T07:20:51.614Z,29.17
2022-08-17T07:23:22.741Z,29.53
2022-08-17T07:25:49.171Z,29.75
2022-08-17T07:28:18.766Z,29.89
2022-08-17T07:30:48.494Z,30.03
2022-08-17T07:33:20.105Z,30.32
2022-08-17T07:35:47.708Z,30.52
2022-08-17T07:38:25.008Z,30.35
2022-08-17T07:41:03.153Z,30.11
2022-08-17T07:43:31.139Z,29.97
2022-08-17T07:46:17.555Z,29.90
2022-08-17T07:48:45.886Z,29.85
2022-08-17T07:51:14.143Z,29.88
2022-08-17T07:53:40.968Z,29.83
2022-08-17T07:56:07.675Z,29.69
2022-08-17T07:58:33.930Z,29.55
2022-08-17T08:01:10.865Z,29.56
2022-08-17T08:03:42.336Z,29.76
2022-08-17T08:06:20.080Z,29.96
2022-08-17T08:08:49.976Z,30.09
2022-08-17T08:11:27.811Z,30.14
2022-08-17T08:13:53.998Z,30.06
2022-08-17T08:16:25.722Z,30.07
2022-08-17T08:18:55.317Z,30.24
2022-08-17T08:21:36.283Z,30.48
2022-08-17T08:24:09.269Z,30.65
2022-08-17T08:26:46.974Z,30.71
2022-08-17T08:29:22.939Z,30.81
2022-08-17T08:31:52.804Z,30.99
2022-08-17T08:34:59.194Z,31.14
2022-08-17T08:37:35.726Z,31.25
2022-08-17T08:40:07.831Z,31.48
2022-08-17T08:42:55.846Z,31.69
2022-08-17T08:45:22.421Z,31.86
2022-08-17T08:47:54.594Z,31.95
2022-08-17T08:50:37.110Z,32.02
2022-08-17T08:53:18.511Z,32.09
2022-08-17T08:55:58.054Z,32.30
2022-08-17T08:58:31.521Z,32.75
2022-08-17T09:01:13.096Z,33.29
2022-08-17T09:03:53.841Z,34.01
2022-08-17T09:06:40.394Z,34.15
2022-08-17T09:09:06.764Z,34.57
2022-08-17T09:12:01.952Z,35.42
2022-08-17T09:14:45.114Z,37.12
2022-08-17T09:17:18.732Z,37.69
2022-08-17T09:19:50.038Z,38.24
2022-08-17T09:22:16.888Z,39.86
2022-08-17T09:24:44.126Z,42.07
2022-08-17T09:27:12.715Z,43.79
2022-08-17T09:29:42.184Z,43.81
2022-08-17T09:32:16.963Z,44.11
2022-08-17T09:34:48.508Z,44.34
2022-08-17T09:37:25.634Z,44.47
2022-08-17T09:39:57.923Z,44.27
2022-08-17T09:42:32.871Z,43.43
2022-08-17T09:45:06.369Z,43.39
2022-08-17T09:47:32.497Z,43.50
2022-08-17T09:50:09.089Z,44.80
2022-08-17T09:52:35.435Z,46.66
2022-08-17T09:55:01.957Z,48.13
2022-08-17T09:57:43.596Z,47.61
2022-08-17T10:00:15.719Z,47.19
2022-08-17T10:03:08.974Z,47.96
2022-08-17T10:05:56.334Z,48.82
2022-08-17T10:08:30.157Z,49.86
2022-08-17T10:10:59.213Z,50.69
2022-08-17T10:13:32.219Z,51.01
2022-08-17T10:16:00.647Z,51.32
2022-08-17T10:18:45.678Z,51.88
2022-08-17T10:21:31.436Z,52.05
2022-08-17T10:24:24.476Z,52.60
2022-08-17T10:26:56.490Z,53.16
2022-08-17T10:29:48.541Z,52.86
2022-08-17T10:32:31.587Z,52.90
2022-08-17T10:35:01.002Z,53.32
2022-08-17T10:37:49.196Z,53.29
2022-08-17T10:40:19.058Z,53.74
2022-08-17T10:42:49.762Z,54.16
2022-08-17T10:45:22.891Z,54.51
2022-08-17T10:48:20.747Z,54.33
2022-08-17T10:50:47.464Z,53.12
2022-08-17T10:53:31.994Z,51.36
2022-08-17T10:56:24.611Z,49.26
2022-08-17T10:58:53.329Z,47.21
2022-08-17T11:01:28.873Z,46.32
2022-08-17T11:03:56.961Z,45.62
2022-08-17T11:06:23.295Z,45.13
2022-08-17T11:09:08.266Z,44.78
2022-08-17T11:11:39.906Z,44.47
2022-08-17T11:14:24.438Z,44.12
2022-08-17T11:17:05.795Z,43.57
2022-08-17T11:19:31.943Z,43.02
2022-08-17T11:21:58.078Z,42.31
2022-08-17T11:24:29.866Z,41.66
2022-08-17T11:27:05.292Z,41.03
2022-08-17T11:29:38.297Z,40.49
2022-08-17T11:32:12.623Z,40.04
2022-08-17T11:34:39.511Z,39.34
2022-08-17T11:37:14.921Z,38.89
2022-08-17T11:39:44.647Z,38.60
2022-08-17T11:42:11.164Z,38.36
2022-08-17T11:44:41.087Z,38.12
2022-08-17T11:47:32.694Z,37.64
2022-08-17T11:50:32.783Z,37.10
2022-08-17T11:52:58.967Z,36.78
2022-08-17T11:55:38.418Z,36.62
2022-08-17T11:58:06.817Z,36.42
2022-08-17T12:00:40.932Z,36.20
2022-08-17T12:03:21.917Z,35.98
2022-08-17T12:05:48.593Z,35.74
2022-08-17T12:08:17.941Z,35.46
2022-08-17T12:10:58.961Z,35.14
2022-08-17T12:13:27.347Z,34.86
2022-08-17T12:15:57.057Z,34.45
2022-08-17T12:18:29.235Z,34.13
2022-08-17T12:21:15.715Z,34.08
2022-08-17T12:23:50.488Z,34.01
2022-08-17T12:26:18.849Z,33.82
2022-08-17T12:28:49.675Z,33.69
2022-08-17T12:31:21.903Z,33.58
2022-08-17T12:33:49.375Z,33.39
2022-08-17T12:36:16.700Z,33.16
2022-08-17T12:38:48.915Z,33.00
2022-08-17T12:41:28.291Z,32.83
2022-08-17T12:44:00.970Z,32.69
2022-08-17T12:46:28.268Z,32.58
2022-08-17T12:49:09.762Z,32.38
2022-08-17T12:51:41.315Z,32.03
2022-08-17T12:54:07.501Z,31.78
2022-08-17T12:56:33.789Z,31.65
2022-08-17T12:59:01.458Z,31.57
2022-08-17T13:01:28.662Z,31.58
2022-08-17T13:03:56.476Z,31.68
2022-08-17T13:06:32.852Z,31.85
2022-08-17T13:09:30.969Z,31.98
2022-08-17T13:12:02.837Z,32.03
2022-08-17T13:14:32.535Z,31.95
2022-08-17T13:17:01.062Z,31.77
2022-08-17T13:19:39.753Z,31.59
2022-08-17T13:22:09.791Z,31.45
2022-08-17T13:24:38.073Z,31.34
2022-08-17T13:27:08.628Z,31.25
2022-08-17T13:29:34.979Z,31.21
2022-08-17T13:32:05.956Z,31.16
2022-08-17T13:34:59.594Z,31.16
2022-08-17T13:37:34.492Z,31.18
2022-08-17T13:40:12.735Z,31.14
2022-08-17T13:42:52.072Z,31.21
2022-08-17T13:45:36.720Z,31.32
2022-08-17T13:48:08.050Z,31.38
2022-08-17T13:50:39.621Z,31.43
2022-08-17T13:53:25.913Z,31.51
2022-08-17T13:55:55.394Z,31.61
2022-08-17T13:58:22.486Z,31.71
2022-08-17T14:00:49.976Z,31.71
2022-08-17T14:03:16.211Z,31.62
2022-08-17T14:05:42.952Z,31.54
2022-08-17T14:08:10.600Z,31.46
2022-08-17T14:10:36.859Z,31.37
2022-08-17T14:13:03.309Z,31.27
2022-08-17T14:15:56.330Z,31.16
2022-08-17T14:18:18.276Z,31.02
2022-08-17T14:21:04.505Z,30.88
2022-08-17T14:23:32.204Z,30.76
2022-08-17T14:25:59.125Z,30.66
2022-08-17T14:28:25.272Z,30.58
2022-08-17T14:30:54.798Z,30.52
2022-08-17T14:33:22.129Z,30.51
2022-08-17T14:35:50.865Z,30.58
2022-08-17T14:38:18.149Z,30.62
2022-08-17T14:40:44.930Z,30.65
2022-08-17T14:43:11.350Z,30.69
2022-08-17T14:45:37.616Z,30.71
2022-08-17T14:48:06.847Z,30.69
2022-08-17T14:50:35.859Z,30.55
2022-08-17T14:53:03.886Z,30.31
2022-08-17T14:55:30.490Z,30.05
2022-08-17T14:57:56.914Z,29.81
2022-08-17T15:00:23.148Z,29.59
2022-08-17T15:02:53.018Z,29.38
2022-08-17T15:05:21.372Z,29.21
2022-08-17T15:07:47.675Z,29.08
2022-08-17T15:10:14.571Z,28.99
2022-08-17T15:12:41.238Z,28.94
2022-08-17T15:15:08.905Z,28.94
2022-08-17T15:17:45.234Z,28.94
2022-08-17T15:20:19.576Z,28.93
2022-08-17T15:22:48.697Z,28.88
2022-08-17T15:25:16.147Z,28.84
2022-08-17T15:27:42.429Z,28.79
2022-08-17T15:30:09.402Z,28.71
2022-08-17T15:32:37.377Z,28.61
2022-08-17T15:35:04.710Z,28.47
2022-08-17T15:37:33.905Z,28.35
2022-08-17T15:40:00.687Z,28.23
2022-08-17T15:42:27.320Z,28.12
2022-08-17T15:44:56.782Z,28.01
2022-08-17T15:47:23.771Z,27.90
2022-08-17T15:49:50.215Z,27.80
2022-08-17T15:52:26.526Z,27.71
2022-08-17T15:54:56.963Z,27.63
2022-08-17T15:57:25.990Z,27.56
2022-08-17T15:59:55.182Z,27.50
2022-08-17T16:03:44.866Z,27.43
2022-08-17T16:05:21.321Z,27.36
2022-08-17T16:07:50.609Z,27.29
2022-08-17T16:10:19.184Z,27.21
2022-08-17T16:12:46.693Z,27.14
2022-08-17T16:15:13.139Z,27.07
2022-08-17T16:17:40.812Z,27.03
2022-08-17T16:20:08.297Z,26.98
2022-08-17T16:22:36.081Z,26.94
2022-08-17T16:25:04.612Z,26.89
2022-08-17T16:27:30.810Z,26.84
2022-08-17T16:29:57.251Z,26.81
2022-08-17T16:32:31.797Z,26.79
2022-08-17T16:35:07.385Z,26.75
2022-08-17T16:37:34.318Z,26.71
2022-08-17T16:40:01.439Z,26.67
2022-08-17T16:42:30.838Z,26.64
2022-08-17T16:45:03.190Z,26.63
2022-08-17T16:47:29.908Z,26.61
2022-08-17T16:49:56.217Z,26.60
2022-08-17T16:52:32.448Z,26.57
2022-08-17T16:55:00.205Z,26.53
2022-08-17T16:57:26.657Z,26.50
2022-08-17T16:59:53.216Z,26.46
2022-08-17T17:02:36.744Z,26.42
2022-08-17T17:05:05.617Z,26.36
2022-08-17T17:07:33.078Z,26.31
2022-08-17T17:10:03.427Z,26.25
2022-08-17T17:12:34.973Z,26.19
2022-08-17T17:15:21.961Z,26.11
2022-08-17T17:17:48.920Z,26.04
2022-08-17T17:20:15.269Z,25.96
2022-08-17T17:23:00.189Z,25.87
2022-08-17T17:25:38.856Z,25.76
2022-08-17T17:28:07.689Z,25.65
2022-08-17T17:30:39.335Z,25.56
2022-08-17T17:33:06.490Z,25.47
2022-08-17T17:35:34.253Z,25.38
2022-08-17T17:38:04.769Z,25.28
2022-08-17T17:40:41.820Z,25.19
2022-08-17T17:43:37.060Z,25.37
2022-08-17T17:46:28.339Z,25.83
2022-08-17T17:48:54.770Z,26.19
2022-08-17T17:52:06.662Z,26.16
2022-08-17T17:54:20.437Z,25.82
2022-08-17T17:56:52.033Z,25.53
2022-08-17T17:59:44.130Z,25.30
2022-08-17T18:02:39.398Z,25.11
2022-08-17T18:05:08.674Z,24.93
2022-08-17T18:07:40.382Z,24.79
2022-08-17T18:10:29.619Z,24.66
2022-08-17T18:13:02.919Z,24.52
2022-08-17T18:15:31.835Z,24.41
2022-08-17T18:17:59.896Z,24.30
2022-08-17T18:20:32.461Z,24.20
2022-08-17T18:23:09.455Z,24.10
2022-08-17T18:25:44.877Z,24.00
2022-08-17T18:28:25.234Z,23.91
2022-08-17T18:31:10.234Z,23.82
2022-08-17T18:33:37.671Z,23.72
2022-08-17T18:36:04.062Z,23.62
2022-08-17T18:38:34.742Z,23.52
2022-08-17T18:41:23.038Z,23.42
2022-08-17T18:44:12.370Z,23.31
2022-08-17T18:46:39.456Z,23.20
2022-08-17T18:49:07.863Z,23.12
2022-08-17T18:51:40.558Z,23.05
2022-08-17T18:54:19.857Z,22.97
2022-08-17T18:56:58.853Z,22.88
2022-08-17T18:59:41.596Z,22.98
2022-08-17T19:02:18.670Z,23.47
2022-08-17T19:04:58.982Z,23.88
2022-08-17T19:07:28.721Z,24.12
2022-08-17T19:09:58.169Z,24.28
2022-08-17T19:12:27.669Z,24.42
2022-08-17T19:14:55.241Z,24.53
2022-08-17T19:17:23.865Z,24.62
2022-08-17T19:19:53.640Z,24.68
2022-08-17T19:22:28.727Z,24.73
2022-08-17T19:25:10.501Z,24.80
2022-08-17T19:27:41.952Z,24.87
2022-08-17T19:30:24.365Z,24.91
2022-08-17T19:32:51.817Z,24.94
2022-08-17T19:35:19.524Z,24.91
2022-08-17T19:37:55.780Z,24.75
2022-08-17T19:40:51.249Z,24.22
2022-08-17T19:43:14.257Z,23.67
2022-08-17T19:45:46.570Z,23.28
2022-08-17T19:48:31.660Z,22.97
2022-08-17T19:50:59.655Z,22.69
2022-08-17T19:53:41.997Z,22.48
2022-08-17T19:56:38.552Z,22.27
2022-08-17T19:59:23.916Z,22.27
2022-08-17T20:01:57.473Z,22.69
2022-08-17T20:04:31.498Z,23.01
2022-08-17T20:07:03.071Z,23.20
2022-08-17T20:09:39.641Z,23.33
2022-08-17T20:12:08.779Z,23.44
2022-08-17T20:14:55.212Z,23.54
2022-08-17T20:17:28.268Z,23.64
2022-08-17T20:20:01.336Z,23.70
2022-08-17T20:22:50.370Z,23.76
2022-08-17T20:25:30.254Z,23.79
2022-08-17T20:28:05.983Z,23.80
2022-08-17T20:30:36.641Z,23.81
2022-08-17T20:33:03.757Z,23.82
2022-08-17T20:35:34.184Z,23.84
2022-08-17T20:38:03.294Z,23.84
2022-08-17T20:40:29.434Z,23.84
2022-08-17T20:42:55.943Z,23.82
2022-08-17T20:45:25.338Z,23.80
2022-08-17T20:48:15.982Z,23.79
2022-08-17T20:50:40.776Z,23.80
2022-08-17T20:53:08.920Z,23.81
2022-08-17T20:55:35.731Z,23.75
2022-08-17T20:58:30.616Z,23.63
2022-08-17T21:01:01.813Z,23.35
2022-08-17T21:03:28.165Z,22.81
2022-08-17T21:06:17.514Z,22.30
2022-08-17T21:08:58.204Z,21.95
2022-08-17T21:12:03.262Z,21.65
2022-08-17T21:14:26.161Z,21.60
2022-08-17T21:17:11.523Z,22.00
2022-08-17T21:20:00.242Z,22.31
2022-08-17T21:22:27.865Z,22.54
2022-08-17T21:25:06.326Z,22.68
2022-08-17T21:27:51.327Z,22.81
2022-08-17T21:30:23.324Z,22.93
2022-08-17T21:33:14.800Z,23.01
2022-08-17T21:35:49.357Z,23.10
2022-08-17T21:38:16.599Z,23.16
2022-08-17T21:40:44.037Z,23.21
2022-08-17T21:43:22.888Z,23.28
2022-08-17T21:45:56.965Z,23.31
2022-08-17T21:48:24.674Z,23.35
2022-08-17T21:51:03.081Z,23.39
2022-08-17T21:53:37.390Z,23.45
2022-08-17T21:56:04.131Z,23.48
2022-08-17T21:58:31.730Z,23.53
2022-08-17T22:01:13.344Z,23.53
2022-08-17T22:03:39.696Z,23.36
2022-08-17T22:06:25.719Z,22.86
2022-08-17T22:09:03.361Z,22.35
2022-08-17T22:11:31.057Z,21.98
2022-08-17T22:14:00.646Z,21.70
2022-08-17T22:16:31.788Z,21.46
2022-08-17T22:18:58.363Z,21.27
2022-08-17T22:21:25.303Z,21.10
2022-08-17T22:24:05.136Z,20.95
2022-08-17T22:26:50.126Z,20.79
2022-08-17T22:29:35.260Z,20.68
2022-08-17T22:32:01.509Z,21.05
2022-08-17T22:34:27.701Z,21.51
2022-08-17T22:37:12.515Z,21.82
2022-08-17T22:39:39.707Z,22.07
2022-08-17T22:42:07.802Z,22.24
2022-08-17T22:44:36.939Z,22.36
2022-08-17T22:47:11.426Z,22.52
2022-08-17T22:49:53.264Z,22.63
2022-08-17T22:52:22.852Z,22.72
2022-08-17T22:55:09.594Z,22.78
2022-08-17T22:57:54.993Z,22.81
2022-08-17T23:00:30.713Z,22.83
2022-08-17T23:03:06.016Z,22.87
2022-08-17T23:05:33.495Z,22.93
2022-08-17T23:07:59.755Z,22.97
2022-08-17T23:10:26.411Z,22.99
2022-08-17T23:12:56.140Z,23.00
2022-08-17T23:15:23.617Z,23.01
2022-08-17T23:17:49.840Z,23.02
2022-08-17T23:20:16.939Z,23.03
2022-08-17T23:22:51.844Z,23.03
2022-08-17T23:25:27.162Z,23.01
2022-08-17T23:27:53.930Z,22.99
2022-08-17T23:30:22.485Z,22.95
2022-08-17T23:32:53.447Z,22.91
2022-08-17T23:35:20.477Z,22.88
2022-08-17T23:38:09.918Z,22.82
2022-08-17T23:40:37.029Z,22.76
2022-08-17T23:43:09.787Z,22.74
2022-08-17T23:45:51.760Z,22.73
2022-08-17T23:48:30.349Z,22.73
2022-08-17T23:51:13.642Z,22.74
2022-08-17T23:53:41.342Z,22.74
2022-08-17T23:56:10.904Z,22.73
2022-08-17T23:58:39.016Z,22.70
